KLYH

Lynchburg Regional / Preston Glenn Field Airport

Lynchburg, Virginia, USA
METAR KLYH 260354Z AUTO 21004KT 10SM CLR 21/19 A2999 RMK AO2 SLP145 T02110189
Observed Flight Rules
May-26 @ 03:54 UTC (19 minutes ago) Visual Flight Rules
Wind Visibility Clouds
210° at 4 knots 10 miles
  • Clear skies
Temperatures Readings
Current 21°C / 70°F
Dewpoint 19°C / 66°F
Humidity 88%
Altimeter 29.99" Hg
Pressure 1014.5 hPa
Elevation 295
METAR KLYH 260354Z AUTO 21004KT 10SM CLR 21/19 A2999 RMK AO2 SLP145 T02110189
Observed Flight Rules
May-26 @ 03:54 UTC
(19 minutes ago)
VFR
Wind Visibility
210° at 4 knots 10 miles
Clouds
  • Clear skies
Temperature Dewpoint
21°C / 70°F 19°C / 66°F
Humidity Altimeter Pressure
88% 29.99" Hg 1014.5 hPa